createdAt,value
2023-04-20T00:01:16.070Z,4.50
2023-04-20T00:05:17.923Z,4.00
2023-04-20T00:09:19.939Z,4.47
2023-04-20T00:13:21.610Z,3.73
2023-04-20T00:17:23.394Z,4.00
2023-04-20T00:21:25.075Z,3.77
2023-04-20T00:25:28.286Z,3.73
2023-04-20T00:29:32.919Z,4.77
2023-04-20T00:33:34.755Z,3.43
2023-04-20T00:37:36.651Z,3.70
2023-04-20T00:41:38.411Z,3.87
2023-04-20T00:45:40.380Z,3.53
2023-04-20T00:49:42.066Z,4.30
2023-04-20T00:53:43.860Z,4.40
2023-04-20T00:57:45.569Z,4.47
2023-04-20T01:01:47.561Z,4.67
2023-04-20T01:05:49.338Z,5.10
2023-04-20T01:09:52.518Z,4.77
2023-04-20T01:13:54.435Z,4.93
2023-04-20T01:17:57.669Z,5.53
2023-04-20T01:21:59.435Z,6.27
2023-04-20T01:26:01.115Z,7.30
2023-04-20T01:30:02.810Z,7.23
2023-04-20T01:34:04.527Z,8.00
2023-04-20T01:38:06.154Z,7.90
2023-04-20T01:42:08.106Z,7.47
2023-04-20T01:46:09.871Z,8.60
2023-04-20T01:50:11.710Z,9.70
2023-04-20T01:54:13.357Z,7.67
2023-04-20T01:58:15.231Z,8.50
2023-04-20T02:02:23.141Z,7.63
2023-04-20T02:06:32.036Z,7.57
2023-04-20T02:10:40.029Z,10.07
2023-04-20T02:14:41.708Z,8.93
2023-04-20T02:18:52.040Z,9.00
2023-04-20T02:23:00.016Z,8.47
2023-04-20T02:27:02.592Z,8.07
2023-04-20T02:31:04.339Z,8.50
2023-04-20T02:35:08.456Z,8.33
2023-04-20T02:39:10.269Z,8.23
2023-04-20T02:43:12.059Z,8.73
2023-04-20T02:47:13.822Z,8.93
2023-04-20T02:51:15.650Z,8.20
2023-04-20T02:55:17.505Z,8.27
2023-04-20T02:59:19.683Z,8.43
2023-04-20T03:03:22.145Z,9.93
2023-04-20T03:07:24.230Z,9.87
2023-04-20T03:11:25.877Z,9.83
2023-04-20T03:15:27.563Z,9.20
2023-04-20T03:19:29.529Z,9.70
2023-04-20T03:23:31.753Z,9.53
2023-04-20T03:27:33.518Z,10.17
2023-04-20T03:31:35.273Z,9.67
2023-04-20T03:35:39.451Z,10.10
2023-04-20T03:39:41.206Z,12.43
2023-04-20T03:43:42.969Z,10.67
2023-04-20T03:47:44.752Z,12.20
2023-04-20T03:51:46.488Z,11.77
2023-04-20T03:55:48.243Z,11.63
2023-04-20T03:59:49.895Z,10.87
2023-04-20T04:03:51.836Z,14.07
2023-04-20T04:07:53.830Z,12.87
2023-04-20T04:11:55.848Z,14.60
2023-04-20T04:15:57.576Z,17.50
2023-04-20T04:19:59.260Z,15.50
2023-04-20T04:24:00.870Z,16.07
2023-04-20T04:28:02.909Z,14.77
2023-04-20T04:32:05.451Z,15.40
2023-04-20T04:36:07.421Z,16.30
2023-04-20T04:40:09.563Z,13.50
2023-04-20T04:44:12.112Z,15.07
2023-04-20T04:48:16.069Z,16.40
2023-04-20T04:52:17.813Z,14.93
2023-04-20T04:56:21.748Z,16.53
2023-04-20T05:00:32.556Z,16.50
2023-04-20T05:04:34.400Z,15.20
2023-04-20T05:08:36.127Z,18.30
2023-04-20T05:12:38.539Z,16.17
2023-04-20T05:16:40.528Z,18.63
2023-04-20T05:20:42.476Z,17.77
2023-04-20T05:24:44.187Z,16.10
2023-04-20T05:28:45.983Z,16.30
2023-04-20T05:32:50.701Z,16.40
2023-04-20T05:36:54.915Z,16.17
2023-04-20T05:40:56.800Z,16.70
2023-04-20T05:44:58.599Z,15.90
2023-04-20T05:49:00.281Z,15.67
2023-04-20T05:53:04.302Z,16.67
2023-04-20T05:57:06.089Z,13.67
2023-04-20T06:01:07.810Z,15.03
2023-04-20T06:05:10.516Z,15.33
2023-04-20T06:09:12.478Z,17.07
2023-04-20T06:13:14.175Z,16.50
2023-04-20T06:17:18.772Z,16.33
2023-04-20T06:21:20.757Z,16.93
2023-04-20T06:25:22.594Z,17.10
2023-04-20T06:29:24.283Z,17.93
2023-04-20T06:33:26.427Z,18.70
2023-04-20T06:37:28.203Z,14.67
2023-04-20T06:41:31.321Z,17.37
2023-04-20T06:45:34.069Z,17.47
2023-04-20T06:49:37.668Z,15.20
2023-04-20T06:53:39.452Z,16.07
2023-04-20T06:57:43.811Z,19.80
2023-04-20T07:01:45.753Z,17.70
2023-04-20T07:05:47.696Z,14.97
2023-04-20T07:09:49.461Z,16.10
2023-04-20T07:13:51.227Z,15.10
2023-04-20T07:17:53.125Z,14.60
2023-04-20T07:21:54.858Z,12.77
2023-04-20T07:25:56.506Z,13.40
2023-04-20T07:29:58.810Z,12.63
2023-04-20T07:34:01.082Z,14.73
2023-04-20T07:38:05.771Z,14.60
2023-04-20T07:42:07.567Z,12.47
2023-04-20T07:46:09.335Z,13.70
2023-04-20T07:50:11.289Z,14.97
2023-04-20T07:54:13.027Z,11.63
2023-04-20T07:58:16.237Z,13.00
2023-04-20T08:02:18.302Z,12.23
2023-04-20T08:06:20.054Z,12.63
2023-04-20T08:10:21.920Z,14.07
2023-04-20T08:14:26.686Z,16.00
2023-04-20T08:18:30.413Z,15.13
2023-04-20T08:22:33.562Z,15.93
2023-04-20T08:26:35.567Z,13.07
2023-04-20T08:30:41.150Z,14.13
2023-04-20T08:34:42.872Z,14.33
2023-04-20T08:38:44.787Z,14.20
2023-04-20T08:42:46.762Z,15.40
2023-04-20T08:46:48.787Z,14.33
2023-04-20T08:50:50.668Z,14.67
2023-04-20T08:54:56.522Z,15.70
2023-04-20T08:59:01.302Z,15.27
2023-04-20T09:03:03.412Z,15.37
2023-04-20T09:07:05.489Z,16.97
2023-04-20T09:11:21.487Z,15.43
2023-04-20T09:15:30.748Z,17.13
2023-04-20T09:19:32.562Z,15.93
2023-04-20T09:23:34.311Z,13.80
2023-04-20T09:27:36.042Z,14.53
2023-04-20T09:31:37.865Z,15.63
2023-04-20T09:35:48.430Z,14.60
2023-04-20T09:39:53.363Z,15.23
2023-04-20T09:43:58.760Z,15.67
2023-04-20T09:48:01.968Z,16.30
2023-04-20T09:52:04.317Z,18.10
2023-04-20T09:56:06.411Z,15.17
2023-04-20T10:00:10.706Z,21.03
2023-04-20T10:04:14.646Z,15.53
2023-04-20T10:08:16.918Z,17.17
2023-04-20T10:12:20.344Z,17.57
2023-04-20T10:16:22.362Z,16.93
2023-04-20T10:20:26.052Z,16.27
2023-04-20T10:24:31.074Z,19.27
2023-04-20T10:28:40.130Z,18.80
2023-04-20T10:32:41.807Z,18.60
2023-04-20T10:36:43.656Z,18.60
2023-04-20T10:40:47.843Z,19.67
2023-04-20T10:44:52.978Z,19.03
2023-04-20T10:48:56.083Z,19.87
2023-04-20T10:52:57.795Z,20.20
2023-04-20T10:56:59.469Z,20.20
2023-04-20T11:01:02.291Z,19.63
2023-04-20T11:05:13.529Z,19.27
2023-04-20T11:09:26.601Z,21.30
2023-04-20T11:13:29.303Z,19.57
2023-04-20T11:17:36.308Z,20.83
2023-04-20T11:21:41.554Z,19.73
2023-04-20T11:25:53.293Z,20.63
2023-04-20T11:29:58.399Z,18.87
2023-04-20T11:34:00.340Z,19.10
2023-04-20T11:38:02.024Z,19.73
2023-04-20T11:42:04.139Z,18.93
2023-04-20T11:46:37.057Z,18.97
2023-04-20T11:50:41.011Z,16.73
2023-04-20T11:54:44.128Z,17.70
2023-04-20T11:58:46.349Z,18.00
2023-04-20T12:02:48.280Z,19.27
2023-04-20T12:07:00.428Z,20.23
2023-04-20T12:11:02.152Z,20.77
2023-04-20T12:15:04.259Z,18.77
2023-04-20T12:19:05.976Z,18.67
2023-04-20T12:23:07.799Z,20.10
2023-04-20T12:27:09.562Z,19.97
2023-04-20T12:31:11.739Z,23.03
2023-04-20T12:35:13.524Z,22.00
2023-04-20T12:39:15.507Z,21.87
2023-04-20T12:43:17.652Z,22.23
2023-04-20T12:47:19.348Z,20.50
2023-04-20T12:51:21.048Z,21.77
2023-04-20T12:55:23.273Z,23.20
2023-04-20T12:59:25.062Z,19.43
2023-04-20T13:03:27.101Z,21.00
2023-04-20T13:07:33.937Z,21.40
2023-04-20T13:11:39.968Z,20.40
2023-04-20T13:15:44.279Z,23.13
2023-04-20T13:19:46.890Z,20.70
2023-04-20T13:23:48.587Z,20.13
2023-04-20T13:27:50.362Z,21.63
2023-04-20T13:31:52.137Z,20.30
2023-04-20T13:35:54.074Z,18.00
2023-04-20T13:39:55.954Z,20.70
2023-04-20T13:43:59.583Z,18.87
2023-04-20T13:48:01.404Z,19.77
2023-04-20T13:52:03.216Z,22.17
2023-04-20T13:56:08.603Z,19.20
2023-04-20T14:00:12.981Z,18.57
2023-04-20T14:04:22.621Z,19.03
2023-04-20T14:08:27.912Z,18.30
2023-04-20T14:12:29.656Z,17.93
2023-04-20T14:16:31.475Z,18.60
2023-04-20T14:20:33.251Z,17.20
2023-04-20T14:24:35.122Z,16.57
2023-04-20T14:28:36.909Z,16.33
2023-04-20T14:32:41.869Z,17.50
2023-04-20T14:36:46.080Z,17.57
2023-04-20T14:40:48.511Z,19.20
2023-04-20T14:44:50.417Z,20.13
2023-04-20T14:48:52.583Z,17.30
2023-04-20T14:52:54.768Z,20.87
2023-04-20T14:56:56.662Z,17.73
2023-04-20T15:01:01.692Z,17.87
2023-04-20T15:09:06.229Z,18.33
2023-04-20T15:13:09.544Z,17.00
2023-04-20T15:17:11.837Z,18.53
2023-04-20T15:21:16.279Z,17.50
2023-04-20T15:25:19.436Z,17.50
2023-04-20T15:29:24.258Z,17.77
2023-04-20T15:33:28.610Z,19.30
2023-04-20T15:37:30.395Z,17.13
2023-04-20T15:41:34.825Z,19.33
2023-04-20T15:45:36.734Z,18.03
2023-04-20T15:49:40.770Z,17.30
2023-04-20T15:53:48.076Z,18.17
2023-04-20T15:57:58.450Z,18.53
2023-04-20T16:02:09.150Z,16.87
2023-04-20T16:06:11.256Z,17.03
2023-04-20T16:10:20.713Z,18.60
2023-04-20T16:14:23.799Z,19.17
2023-04-20T16:18:40.069Z,17.90
2023-04-20T16:22:41.882Z,17.43
2023-04-20T16:27:07.178Z,18.63
2023-04-20T16:31:09.179Z,17.17
2023-04-20T16:35:18.360Z,16.10
2023-04-20T16:39:28.869Z,16.63
2023-04-20T16:43:43.417Z,17.83
2023-04-20T16:47:47.935Z,15.63
2023-04-20T16:52:30.303Z,15.20
2023-04-20T16:56:32.226Z,15.73
2023-04-20T17:00:35.634Z,17.73
2023-04-20T17:04:40.504Z,18.90
2023-04-20T17:08:44.398Z,15.03
2023-04-20T17:12:53.386Z,13.20
2023-04-20T17:16:59.869Z,14.73
2023-04-20T17:21:02.240Z,12.83
2023-04-20T17:25:06.992Z,10.87
2023-04-20T17:29:19.302Z,13.17
2023-04-20T17:33:22.461Z,12.47
2023-04-20T17:37:24.355Z,16.13
2023-04-20T17:41:26.215Z,11.80
2023-04-20T17:45:28.067Z,11.13
2023-04-20T17:49:32.523Z,13.80
2023-04-20T17:53:49.966Z,13.93
2023-04-20T17:57:58.929Z,14.47
2023-04-20T18:02:00.967Z,14.17
2023-04-20T18:06:03.417Z,17.67
2023-04-20T18:10:08.751Z,16.00
2023-04-20T18:14:13.470Z,16.93
2023-04-20T18:18:19.823Z,17.03
2023-04-20T18:22:21.680Z,17.43
2023-04-20T18:26:24.806Z,18.17
2023-04-20T18:30:26.578Z,17.47
2023-04-20T18:34:31.085Z,17.63
2023-04-20T18:38:35.191Z,20.63
2023-04-20T18:42:39.499Z,19.93
2023-04-20T18:46:44.057Z,17.73
2023-04-20T18:50:48.600Z,20.60
2023-04-20T18:54:51.798Z,21.00
2023-04-20T18:58:53.689Z,17.30
2023-04-20T19:02:56.068Z,19.47
2023-04-20T19:06:58.145Z,17.70
2023-04-20T19:11:04.817Z,19.53
2023-04-20T19:15:15.869Z,20.93
2023-04-20T19:19:20.539Z,17.23
2023-04-20T19:23:22.275Z,19.27
2023-04-20T19:27:24.049Z,18.97
2023-04-20T19:31:26.627Z,20.73
2023-04-20T19:35:28.552Z,24.30
2023-04-20T19:39:30.365Z,20.73
2023-04-20T19:43:36.333Z,20.07
2023-04-20T19:47:38.174Z,25.07
2023-04-20T19:51:42.513Z,23.93
2023-04-20T19:55:44.330Z,22.93
2023-04-20T19:59:46.096Z,24.80
2023-04-20T20:03:48.070Z,22.73
2023-04-20T20:07:50.105Z,22.53
2023-04-20T20:11:51.807Z,22.77
2023-04-20T20:15:56.251Z,22.70
2023-04-20T20:19:58.225Z,24.03
2023-04-20T20:23:59.910Z,22.87
2023-04-20T20:28:01.965Z,23.20
2023-04-20T20:32:03.753Z,25.57
2023-04-20T20:36:06.903Z,22.60
2023-04-20T20:40:14.470Z,22.47
2023-04-20T20:44:17.843Z,26.40
2023-04-20T20:48:19.915Z,26.40
2023-04-20T20:52:22.222Z,26.10
2023-04-20T20:56:24.284Z,23.07
2023-04-20T21:00:26.056Z,26.27
2023-04-20T21:04:29.813Z,26.17
2023-04-20T21:08:31.621Z,23.20
2023-04-20T21:12:33.375Z,23.87
2023-04-20T21:16:35.136Z,22.97
2023-04-20T21:20:36.932Z,22.70
2023-04-20T21:24:38.705Z,30.73
2023-04-20T21:28:40.615Z,25.23
2023-04-20T21:32:42.332Z,30.50
2023-04-20T21:36:44.214Z,28.87
2023-04-20T21:40:45.904Z,26.27
2023-04-20T21:44:47.576Z,30.63
2023-04-20T21:48:50.913Z,29.83
2023-04-20T21:52:54.220Z,31.57
2023-04-20T21:56:56.075Z,27.77
2023-04-20T22:00:57.785Z,34.43
2023-04-20T22:04:59.915Z,37.47
2023-04-20T22:09:02.093Z,29.27
2023-04-20T22:13:03.784Z,32.60
2023-04-20T22:17:05.565Z,29.97
2023-04-20T22:21:07.273Z,33.23
2023-04-20T22:25:09.509Z,44.93
2023-04-20T22:29:11.223Z,36.53
2023-04-20T22:33:12.947Z,39.07
2023-04-20T22:37:15.067Z,43.60
2023-04-20T22:41:17.692Z,37.63
2023-04-20T22:45:20.428Z,36.33
2023-04-20T22:49:23.215Z,35.90
2023-04-20T22:53:24.918Z,34.37
2023-04-20T22:57:26.696Z,32.73
2023-04-20T23:01:28.571Z,31.93
2023-04-20T23:05:30.420Z,29.47
2023-04-20T23:09:32.458Z,26.60
2023-04-20T23:13:34.545Z,29.80
2023-04-20T23:17:36.361Z,26.20
2023-04-20T23:21:38.082Z,23.73
2023-04-20T23:25:39.802Z,25.70
2023-04-20T23:29:41.625Z,22.37
2023-04-20T23:33:43.277Z,25.00
2023-04-20T23:37:44.978Z,24.37
2023-04-20T23:41:46.760Z,26.70
2023-04-20T23:45:48.476Z,25.70
2023-04-20T23:49:50.396Z,25.37
2023-04-20T23:53:52.073Z,24.87
2023-04-20T23:57:53.800Z,26.97
